sensor_id;sensor_type;location;lat;lon;timestamp;P1;durP1;ratioP1;P2;durP2;ratioP2
24555;SDS011;12725;49.440;10.954;2023-08-01T00:00:38;2.75;;;2.03;;
24555;SDS011;12725;49.440;10.954;2023-08-01T00:04:38;2.77;;;1.90;;
24555;SDS011;12725;49.440;10.954;2023-08-01T00:08:39;2.50;;;1.70;;
24555;SDS011;12725;49.440;10.954;2023-08-01T00:12:39;2.60;;;1.63;;
24555;SDS011;12725;49.440;10.954;2023-08-01T00:16:39;4.37;;;1.83;;
24555;SDS011;12725;49.440;10.954;2023-08-01T00:20:40;2.67;;;2.20;;
24555;SDS011;12725;49.440;10.954;2023-08-01T00:24:41;2.97;;;1.90;;
24555;SDS011;12725;49.440;10.954;2023-08-01T00:28:41;2.13;;;1.63;;
24555;SDS011;12725;49.440;10.954;2023-08-01T00:32:42;2.53;;;1.60;;
24555;SDS011;12725;49.440;10.954;2023-08-01T00:36:42;3.10;;;1.92;;
24555;SDS011;12725;49.440;10.954;2023-08-01T00:40:42;4.20;;;2.13;;
24555;SDS011;12725;49.440;10.954;2023-08-01T00:44:43;2.00;;;1.80;;
24555;SDS011;12725;49.440;10.954;2023-08-01T00:48:43;4.90;;;2.67;;
24555;SDS011;12725;49.440;10.954;2023-08-01T00:52:43;4.67;;;1.90;;
24555;SDS011;12725;49.440;10.954;2023-08-01T00:56:44;2.53;;;1.27;;
24555;SDS011;12725;49.440;10.954;2023-08-01T01:00:45;5.55;;;2.63;;
24555;SDS011;12725;49.440;10.954;2023-08-01T01:04:46;2.78;;;1.60;;
24555;SDS011;12725;49.440;10.954;2023-08-01T01:08:46;2.92;;;1.77;;
24555;SDS011;12725;49.440;10.954;2023-08-01T01:12:46;2.80;;;1.77;;
24555;SDS011;12725;49.440;10.954;2023-08-01T01:16:47;3.15;;;2.20;;
24555;SDS011;12725;49.440;10.954;2023-08-01T01:20:47;6.30;;;1.73;;
24555;SDS011;12725;49.440;10.954;2023-08-01T01:24:48;1.70;;;1.23;;
24555;SDS011;12725;49.440;10.954;2023-08-01T01:28:48;1.65;;;1.42;;
24555;SDS011;12725;49.440;10.954;2023-08-01T01:32:50;2.78;;;1.42;;
24555;SDS011;12725;49.440;10.954;2023-08-01T01:36:50;3.72;;;1.48;;
24555;SDS011;12725;49.440;10.954;2023-08-01T01:40:50;2.27;;;1.80;;
24555;SDS011;12725;49.440;10.954;2023-08-01T01:44:51;2.03;;;1.47;;
24555;SDS011;12725;49.440;10.954;2023-08-01T01:48:51;3.33;;;1.40;;
24555;SDS011;12725;49.440;10.954;2023-08-01T01:52:51;3.10;;;1.43;;
24555;SDS011;12725;49.440;10.954;2023-08-01T01:56:52;6.18;;;1.88;;
24555;SDS011;12725;49.440;10.954;2023-08-01T02:00:52;4.30;;;1.50;;
24555;SDS011;12725;49.440;10.954;2023-08-01T02:04:52;3.40;;;2.10;;
24555;SDS011;12725;49.440;10.954;2023-08-01T02:08:54;2.93;;;1.80;;
24555;SDS011;12725;49.440;10.954;2023-08-01T02:12:54;2.42;;;1.73;;
24555;SDS011;12725;49.440;10.954;2023-08-01T02:16:54;2.87;;;1.73;;
24555;SDS011;12725;49.440;10.954;2023-08-01T02:20:55;3.17;;;1.67;;
24555;SDS011;12725;49.440;10.954;2023-08-01T02:24:56;2.25;;;1.33;;
24555;SDS011;12725;49.440;10.954;2023-08-01T02:28:56;2.17;;;1.40;;
24555;SDS011;12725;49.440;10.954;2023-08-01T02:32:57;4.37;;;1.73;;
24555;SDS011;12725;49.440;10.954;2023-08-01T02:36:57;5.47;;;1.47;;
24555;SDS011;12725;49.440;10.954;2023-08-01T02:40:57;12.17;;;1.97;;
24555;SDS011;12725;49.440;10.954;2023-08-01T02:44:58;2.72;;;1.70;;
24555;SDS011;12725;49.440;10.954;2023-08-01T02:48:58;4.30;;;2.83;;
24555;SDS011;12725;49.440;10.954;2023-08-01T02:52:59;2.73;;;1.40;;
24555;SDS011;12725;49.440;10.954;2023-08-01T02:56:59;1.73;;;1.48;;
24555;SDS011;12725;49.440;10.954;2023-08-01T03:00:59;12.67;;;1.67;;
24555;SDS011;12725;49.440;10.954;2023-08-01T03:05:01;2.72;;;1.48;;
24555;SDS011;12725;49.440;10.954;2023-08-01T03:09:04;1.73;;;1.40;;
24555;SDS011;12725;49.440;10.954;2023-08-01T03:13:07;3.33;;;1.67;;
24555;SDS011;12725;49.440;10.954;2023-08-01T03:17:08;2.67;;;1.67;;
24555;SDS011;12725;49.440;10.954;2023-08-01T03:21:08;1.73;;;1.40;;
24555;SDS011;12725;49.440;10.954;2023-08-01T03:25:09;2.55;;;1.20;;
24555;SDS011;12725;49.440;10.954;2023-08-01T03:29:09;1.40;;;1.30;;
24555;SDS011;12725;49.440;10.954;2023-08-01T03:33:10;2.10;;;1.37;;
24555;SDS011;12725;49.440;10.954;2023-08-01T03:37:10;4.47;;;1.57;;
24555;SDS011;12725;49.440;10.954;2023-08-01T03:41:10;13.43;;;2.33;;
24555;SDS011;12725;49.440;10.954;2023-08-01T03:45:11;4.80;;;1.88;;
24555;SDS011;12725;49.440;10.954;2023-08-01T03:49:11;4.53;;;2.00;;
24555;SDS011;12725;49.440;10.954;2023-08-01T03:53:12;3.53;;;2.10;;
24555;SDS011;12725;49.440;10.954;2023-08-01T03:57:12;1.30;;;1.17;;
24555;SDS011;12725;49.440;10.954;2023-08-01T04:01:12;1.80;;;1.13;;
24555;SDS011;12725;49.440;10.954;2023-08-01T04:05:13;3.53;;;1.90;;
24555;SDS011;12725;49.440;10.954;2023-08-01T04:09:13;2.35;;;1.67;;
24555;SDS011;12725;49.440;10.954;2023-08-01T04:13:13;1.43;;;1.27;;
24555;SDS011;12725;49.440;10.954;2023-08-01T04:17:14;7.00;;;1.33;;
24555;SDS011;12725;49.440;10.954;2023-08-01T04:21:16;1.73;;;1.25;;
24555;SDS011;12725;49.440;10.954;2023-08-01T04:25:16;2.70;;;1.92;;
24555;SDS011;12725;49.440;10.954;2023-08-01T04:29:17;10.27;;;1.70;;
24555;SDS011;12725;49.440;10.954;2023-08-01T04:33:18;2.63;;;1.98;;
24555;SDS011;12725;49.440;10.954;2023-08-01T04:37:18;2.37;;;1.60;;
24555;SDS011;12725;49.440;10.954;2023-08-01T04:41:22;2.53;;;1.58;;
24555;SDS011;12725;49.440;10.954;2023-08-01T04:45:22;2.03;;;1.58;;
24555;SDS011;12725;49.440;10.954;2023-08-01T04:49:23;1.97;;;1.27;;
24555;SDS011;12725;49.440;10.954;2023-08-01T04:53:24;4.10;;;2.15;;
24555;SDS011;12725;49.440;10.954;2023-08-01T04:57:24;1.58;;;1.10;;
24555;SDS011;12725;49.440;10.954;2023-08-01T05:01:25;2.47;;;1.20;;
24555;SDS011;12725;49.440;10.954;2023-08-01T05:05:25;5.73;;;2.00;;
24555;SDS011;12725;49.440;10.954;2023-08-01T05:09:26;2.20;;;1.73;;
24555;SDS011;12725;49.440;10.954;2023-08-01T05:13:26;3.90;;;2.13;;
24555;SDS011;12725;49.440;10.954;2023-08-01T05:17:27;1.83;;;1.30;;
24555;SDS011;12725;49.440;10.954;2023-08-01T05:21:27;4.43;;;1.33;;
24555;SDS011;12725;49.440;10.954;2023-08-01T05:25:27;2.65;;;1.55;;
24555;SDS011;12725;49.440;10.954;2023-08-01T05:29:28;2.40;;;1.20;;
24555;SDS011;12725;49.440;10.954;2023-08-01T05:33:28;2.50;;;1.83;;
24555;SDS011;12725;49.440;10.954;2023-08-01T05:37:28;3.53;;;1.87;;
24555;SDS011;12725;49.440;10.954;2023-08-01T05:41:29;2.43;;;1.50;;
24555;SDS011;12725;49.440;10.954;2023-08-01T05:45:29;3.88;;;1.52;;
24555;SDS011;12725;49.440;10.954;2023-08-01T05:49:29;7.47;;;2.20;;
24555;SDS011;12725;49.440;10.954;2023-08-01T05:53:30;1.97;;;1.40;;
24555;SDS011;12725;49.440;10.954;2023-08-01T05:57:30;2.90;;;1.37;;
24555;SDS011;12725;49.440;10.954;2023-08-01T06:01:30;2.97;;;2.17;;
24555;SDS011;12725;49.440;10.954;2023-08-01T06:05:31;2.22;;;1.60;;
24555;SDS011;12725;49.440;10.954;2023-08-01T06:09:31;2.50;;;1.30;;
24555;SDS011;12725;49.440;10.954;2023-08-01T06:13:32;1.50;;;1.15;;
24555;SDS011;12725;49.440;10.954;2023-08-01T06:17:32;8.37;;;1.30;;
24555;SDS011;12725;49.440;10.954;2023-08-01T06:21:32;4.23;;;1.87;;
24555;SDS011;12725;49.440;10.954;2023-08-01T06:25:33;3.85;;;1.98;;
24555;SDS011;12725;49.440;10.954;2023-08-01T06:29:33;2.60;;;1.45;;
24555;SDS011;12725;49.440;10.954;2023-08-01T06:33:33;2.28;;;1.50;;
24555;SDS011;12725;49.440;10.954;2023-08-01T06:37:34;3.13;;;1.88;;
24555;SDS011;12725;49.440;10.954;2023-08-01T06:41:34;3.42;;;1.88;;
24555;SDS011;12725;49.440;10.954;2023-08-01T06:45:34;2.27;;;1.67;;
24555;SDS011;12725;49.440;10.954;2023-08-01T06:49:35;6.22;;;1.58;;
24555;SDS011;12725;49.440;10.954;2023-08-01T06:53:35;3.38;;;1.50;;
24555;SDS011;12725;49.440;10.954;2023-08-01T06:57:36;3.50;;;2.63;;
24555;SDS011;12725;49.440;10.954;2023-08-01T07:01:36;3.10;;;1.57;;
24555;SDS011;12725;49.440;10.954;2023-08-01T07:05:40;4.32;;;1.67;;
24555;SDS011;12725;49.440;10.954;2023-08-01T07:09:40;2.10;;;1.47;;
24555;SDS011;12725;49.440;10.954;2023-08-01T07:13:41;1.77;;;1.30;;
24555;SDS011;12725;49.440;10.954;2023-08-01T07:17:41;2.13;;;1.38;;
24555;SDS011;12725;49.440;10.954;2023-08-01T07:21:42;2.58;;;0.93;;
24555;SDS011;12725;49.440;10.954;2023-08-01T07:25:44;2.33;;;1.38;;
24555;SDS011;12725;49.440;10.954;2023-08-01T07:29:44;1.83;;;1.40;;
24555;SDS011;12725;49.440;10.954;2023-08-01T07:33:45;1.63;;;1.20;;
24555;SDS011;12725;49.440;10.954;2023-08-01T07:37:45;5.00;;;2.07;;
24555;SDS011;12725;49.440;10.954;2023-08-01T07:41:46;2.92;;;1.45;;
24555;SDS011;12725;49.440;10.954;2023-08-01T07:45:46;1.95;;;1.48;;
24555;SDS011;12725;49.440;10.954;2023-08-01T07:49:50;3.40;;;1.92;;
24555;SDS011;12725;49.440;10.954;2023-08-01T07:53:51;4.03;;;1.70;;
24555;SDS011;12725;49.440;10.954;2023-08-01T07:57:53;4.75;;;2.28;;
24555;SDS011;12725;49.440;10.954;2023-08-01T08:01:54;3.50;;;1.77;;
24555;SDS011;12725;49.440;10.954;2023-08-01T08:05:54;7.45;;;2.08;;
24555;SDS011;12725;49.440;10.954;2023-08-01T08:09:54;1.55;;;1.40;;
24555;SDS011;12725;49.440;10.954;2023-08-01T08:13:55;2.85;;;1.88;;
24555;SDS011;12725;49.440;10.954;2023-08-01T08:17:55;1.83;;;1.42;;
24555;SDS011;12725;49.440;10.954;2023-08-01T08:21:56;2.10;;;1.40;;
24555;SDS011;12725;49.440;10.954;2023-08-01T08:25:56;1.75;;;1.48;;
24555;SDS011;12725;49.440;10.954;2023-08-01T08:29:56;1.65;;;1.55;;
24555;SDS011;12725;49.440;10.954;2023-08-01T08:33:57;2.88;;;1.40;;
24555;SDS011;12725;49.440;10.954;2023-08-01T08:37:58;4.80;;;1.80;;
24555;SDS011;12725;49.440;10.954;2023-08-01T08:41:59;2.50;;;1.48;;
24555;SDS011;12725;49.440;10.954;2023-08-01T08:46:00;3.50;;;1.58;;
24555;SDS011;12725;49.440;10.954;2023-08-01T08:50:01;2.05;;;1.77;;
24555;SDS011;12725;49.440;10.954;2023-08-01T08:54:02;3.33;;;2.03;;
24555;SDS011;12725;49.440;10.954;2023-08-01T08:58:03;5.65;;;1.85;;
24555;SDS011;12725;49.440;10.954;2023-08-01T09:02:03;5.30;;;2.13;;
24555;SDS011;12725;49.440;10.954;2023-08-01T09:06:07;3.50;;;2.20;;
24555;SDS011;12725;49.440;10.954;2023-08-01T09:10:11;6.43;;;2.47;;
24555;SDS011;12725;49.440;10.954;2023-08-01T09:14:11;2.10;;;1.60;;
24555;SDS011;12725;49.440;10.954;2023-08-01T09:18:12;1.50;;;1.33;;
24555;SDS011;12725;49.440;10.954;2023-08-01T09:22:16;3.07;;;1.73;;
24555;SDS011;12725;49.440;10.954;2023-08-01T09:26:18;2.95;;;1.73;;
24555;SDS011;12725;49.440;10.954;2023-08-01T09:30:19;5.28;;;1.95;;
24555;SDS011;12725;49.440;10.954;2023-08-01T09:34:23;3.93;;;2.00;;
24555;SDS011;12725;49.440;10.954;2023-08-01T09:38:24;3.25;;;2.05;;
24555;SDS011;12725;49.440;10.954;2023-08-01T09:42:26;5.60;;;1.90;;
24555;SDS011;12725;49.440;10.954;2023-08-01T09:46:27;3.28;;;1.90;;
24555;SDS011;12725;49.440;10.954;2023-08-01T09:50:27;3.47;;;1.90;;
24555;SDS011;12725;49.440;10.954;2023-08-01T09:54:28;3.45;;;1.77;;
24555;SDS011;12725;49.440;10.954;2023-08-01T09:58:32;4.70;;;2.00;;
24555;SDS011;12725;49.440;10.954;2023-08-01T10:02:34;6.55;;;3.67;;
24555;SDS011;12725;49.440;10.954;2023-08-01T10:06:37;2.33;;;1.70;;
24555;SDS011;12725;49.440;10.954;2023-08-01T10:10:37;4.78;;;1.98;;
24555;SDS011;12725;49.440;10.954;2023-08-01T10:14:38;2.83;;;1.52;;
24555;SDS011;12725;49.440;10.954;2023-08-01T10:18:39;3.47;;;1.90;;
24555;SDS011;12725;49.440;10.954;2023-08-01T10:22:39;2.65;;;1.70;;
24555;SDS011;12725;49.440;10.954;2023-08-01T10:26:41;3.50;;;1.35;;
24555;SDS011;12725;49.440;10.954;2023-08-01T10:30:44;2.72;;;1.67;;
24555;SDS011;12725;49.440;10.954;2023-08-01T10:34:51;2.60;;;1.80;;
24555;SDS011;12725;49.440;10.954;2023-08-01T10:38:55;2.75;;;1.45;;
24555;SDS011;12725;49.440;10.954;2023-08-01T10:42:57;1.20;;;1.13;;
24555;SDS011;12725;49.440;10.954;2023-08-01T10:46:58;1.10;;;0.98;;
24555;SDS011;12725;49.440;10.954;2023-08-01T10:50:59;6.55;;;1.50;;
24555;SDS011;12725;49.440;10.954;2023-08-01T10:55:02;4.05;;;0.93;;
24555;SDS011;12725;49.440;10.954;2023-08-01T10:59:05;1.77;;;1.33;;
24555;SDS011;12725;49.440;10.954;2023-08-01T11:03:05;2.70;;;1.50;;
24555;SDS011;12725;49.440;10.954;2023-08-01T11:07:05;1.88;;;1.38;;
24555;SDS011;12725;49.440;10.954;2023-08-01T11:11:06;1.83;;;1.03;;
24555;SDS011;12725;49.440;10.954;2023-08-01T11:15:08;1.77;;;1.08;;
24555;SDS011;12725;49.440;10.954;2023-08-01T11:19:20;1.10;;;0.90;;
24555;SDS011;12725;49.440;10.954;2023-08-01T11:23:29;1.08;;;0.90;;
24555;SDS011;12725;49.440;10.954;2023-08-01T11:27:29;0.90;;;0.60;;
24555;SDS011;12725;49.440;10.954;2023-08-01T11:31:30;4.07;;;1.10;;
24555;SDS011;12725;49.440;10.954;2023-08-01T11:35:31;2.03;;;1.05;;
24555;SDS011;12725;49.440;10.954;2023-08-01T11:39:31;1.20;;;0.80;;
24555;SDS011;12725;49.440;10.954;2023-08-01T11:43:38;2.10;;;0.95;;
24555;SDS011;12725;49.440;10.954;2023-08-01T11:47:46;1.20;;;0.90;;
24555;SDS011;12725;49.440;10.954;2023-08-01T11:51:47;1.40;;;1.00;;
24555;SDS011;12725;49.440;10.954;2023-08-01T11:55:47;1.38;;;0.60;;
24555;SDS011;12725;49.440;10.954;2023-08-01T11:59:49;0.40;;;0.40;;
24555;SDS011;12725;49.440;10.954;2023-08-01T12:03:52;2.05;;;0.60;;
24555;SDS011;12725;49.440;10.954;2023-08-01T12:07:53;0.88;;;0.60;;
24555;SDS011;12725;49.440;10.954;2023-08-01T12:11:57;0.50;;;0.50;;
24555;SDS011;12725;49.440;10.954;2023-08-01T12:15:59;0.50;;;0.50;;
24555;SDS011;12725;49.440;10.954;2023-08-01T12:20:00;0.63;;;0.63;;
24555;SDS011;12725;49.440;10.954;2023-08-01T12:24:01;0.60;;;0.60;;
24555;SDS011;12725;49.440;10.954;2023-08-01T12:28:01;0.50;;;0.50;;
24555;SDS011;12725;49.440;10.954;2023-08-01T12:32:02;0.50;;;0.50;;
24555;SDS011;12725;49.440;10.954;2023-08-01T12:36:03;0.60;;;0.43;;
24555;SDS011;12725;49.440;10.954;2023-08-01T12:40:04;0.63;;;0.50;;
24555;SDS011;12725;49.440;10.954;2023-08-01T12:44:05;0.30;;;0.30;;
24555;SDS011;12725;49.440;10.954;2023-08-01T12:48:06;0.60;;;0.60;;
24555;SDS011;12725;49.440;10.954;2023-08-01T12:52:06;0.40;;;0.40;;
24555;SDS011;12725;49.440;10.954;2023-08-01T12:56:07;1.87;;;0.73;;
24555;SDS011;12725;49.440;10.954;2023-08-01T13:00:07;0.50;;;0.50;;
24555;SDS011;12725;49.440;10.954;2023-08-01T13:04:10;0.85;;;0.85;;
24555;SDS011;12725;49.440;10.954;2023-08-01T13:08:10;0.93;;;0.60;;
24555;SDS011;12725;49.440;10.954;2023-08-01T13:12:10;3.78;;;0.77;;
24555;SDS011;12725;49.440;10.954;2023-08-01T13:16:11;0.63;;;0.47;;
24555;SDS011;12725;49.440;10.954;2023-08-01T13:20:11;0.70;;;0.50;;
24555;SDS011;12725;49.440;10.954;2023-08-01T13:24:12;0.65;;;0.65;;
24555;SDS011;12725;49.440;10.954;2023-08-01T13:28:12;0.47;;;0.40;;
24555;SDS011;12725;49.440;10.954;2023-08-01T13:32:13;1.23;;;0.63;;
24555;SDS011;12725;49.440;10.954;2023-08-01T13:36:13;4.10;;;0.60;;
24555;SDS011;12725;49.440;10.954;2023-08-01T13:40:13;0.40;;;0.40;;
24555;SDS011;12725;49.440;10.954;2023-08-01T13:44:14;1.27;;;0.68;;
24555;SDS011;12725;49.440;10.954;2023-08-01T13:48:14;0.97;;;0.70;;
24555;SDS011;12725;49.440;10.954;2023-08-01T13:52:15;0.65;;;0.60;;
24555;SDS011;12725;49.440;10.954;2023-08-01T13:56:15;3.00;;;1.33;;
24555;SDS011;12725;49.440;10.954;2023-08-01T14:00:15;0.60;;;0.60;;
24555;SDS011;12725;49.440;10.954;2023-08-01T14:04:16;0.70;;;0.45;;
24555;SDS011;12725;49.440;10.954;2023-08-01T14:08:16;0.90;;;0.73;;
24555;SDS011;12725;49.440;10.954;2023-08-01T14:12:17;1.17;;;0.73;;
24555;SDS011;12725;49.440;10.954;2023-08-01T14:16:19;0.30;;;0.30;;
24555;SDS011;12725;49.440;10.954;2023-08-01T14:20:19;0.45;;;0.45;;
24555;SDS011;12725;49.440;10.954;2023-08-01T14:24:21;4.13;;;0.60;;
24555;SDS011;12725;49.440;10.954;2023-08-01T14:28:21;0.43;;;0.43;;
24555;SDS011;12725;49.440;10.954;2023-08-01T14:32:21;1.70;;;0.80;;
24555;SDS011;12725;49.440;10.954;2023-08-01T14:36:22;0.45;;;0.45;;
24555;SDS011;12725;49.440;10.954;2023-08-01T14:40:22;0.57;;;0.57;;
24555;SDS011;12725;49.440;10.954;2023-08-01T14:44:23;0.50;;;0.50;;
24555;SDS011;12725;49.440;10.954;2023-08-01T14:48:23;1.30;;;0.57;;
24555;SDS011;12725;49.440;10.954;2023-08-01T14:52:24;1.17;;;0.70;;
24555;SDS011;12725;49.440;10.954;2023-08-01T14:56:24;0.60;;;0.60;;
24555;SDS011;12725;49.440;10.954;2023-08-01T15:00:25;0.77;;;0.73;;
24555;SDS011;12725;49.440;10.954;2023-08-01T15:04:25;0.68;;;0.57;;
24555;SDS011;12725;49.440;10.954;2023-08-01T15:08:26;1.00;;;0.90;;
24555;SDS011;12725;49.440;10.954;2023-08-01T15:12:27;1.10;;;0.90;;
24555;SDS011;12725;49.440;10.954;2023-08-01T15:16:27;0.70;;;0.55;;
24555;SDS011;12725;49.440;10.954;2023-08-01T15:20:27;1.00;;;0.90;;
24555;SDS011;12725;49.440;10.954;2023-08-01T15:24:32;0.57;;;0.57;;
24555;SDS011;12725;49.440;10.954;2023-08-01T15:28:32;1.15;;;0.80;;
24555;SDS011;12725;49.440;10.954;2023-08-01T15:32:32;0.60;;;0.60;;
24555;SDS011;12725;49.440;10.954;2023-08-01T15:36:34;1.13;;;0.90;;
24555;SDS011;12725;49.440;10.954;2023-08-01T15:40:34;1.08;;;0.70;;
24555;SDS011;12725;49.440;10.954;2023-08-01T15:44:35;1.00;;;0.75;;
24555;SDS011;12725;49.440;10.954;2023-08-01T15:48:35;0.70;;;0.60;;
24555;SDS011;12725;49.440;10.954;2023-08-01T15:52:36;0.95;;;0.60;;
24555;SDS011;12725;49.440;10.954;2023-08-01T15:56:37;1.85;;;0.77;;
24555;SDS011;12725;49.440;10.954;2023-08-01T16:00:37;1.65;;;1.20;;
24555;SDS011;12725;49.440;10.954;2023-08-01T16:04:38;1.13;;;0.90;;
24555;SDS011;12725;49.440;10.954;2023-08-01T16:08:38;0.93;;;0.85;;
24555;SDS011;12725;49.440;10.954;2023-08-01T16:12:39;7.77;;;1.40;;
24555;SDS011;12725;49.440;10.954;2023-08-01T16:16:39;1.00;;;0.90;;
24555;SDS011;12725;49.440;10.954;2023-08-01T16:20:39;0.73;;;0.63;;
24555;SDS011;12725;49.440;10.954;2023-08-01T16:24:40;1.13;;;0.80;;
24555;SDS011;12725;49.440;10.954;2023-08-01T16:28:40;0.60;;;0.60;;
24555;SDS011;12725;49.440;10.954;2023-08-01T16:32:40;1.10;;;0.77;;
24555;SDS011;12725;49.440;10.954;2023-08-01T16:36:41;1.52;;;0.73;;
24555;SDS011;12725;49.440;10.954;2023-08-01T16:40:41;1.93;;;1.33;;
24555;SDS011;12725;49.440;10.954;2023-08-01T16:45:06;0.82;;;0.75;;
24555;SDS011;12725;49.440;10.954;2023-08-01T16:49:36;1.80;;;1.40;;
24555;SDS011;12725;49.440;10.954;2023-08-01T16:53:36;8.53;;;4.20;;
24555;SDS011;12725;49.440;10.954;2023-08-01T16:57:37;2.70;;;1.55;;
24555;SDS011;12725;49.440;10.954;2023-08-01T17:01:37;2.30;;;0.68;;
24555;SDS011;12725;49.440;10.954;2023-08-01T17:05:38;3.30;;;1.10;;
24555;SDS011;12725;49.440;10.954;2023-08-01T17:09:38;3.38;;;0.80;;
24555;SDS011;12725;49.440;10.954;2023-08-01T17:13:39;0.75;;;0.70;;
24555;SDS011;12725;49.440;10.954;2023-08-01T17:17:39;0.70;;;0.70;;
24555;SDS011;12725;49.440;10.954;2023-08-01T17:21:41;0.95;;;0.65;;
24555;SDS011;12725;49.440;10.954;2023-08-01T17:25:42;2.47;;;0.63;;
24555;SDS011;12725;49.440;10.954;2023-08-01T17:29:42;0.83;;;0.60;;
24555;SDS011;12725;49.440;10.954;2023-08-01T17:33:44;1.70;;;0.90;;
24555;SDS011;12725;49.440;10.954;2023-08-01T17:37:44;2.05;;;1.00;;
24555;SDS011;12725;49.440;10.954;2023-08-01T17:41:45;0.60;;;0.60;;
24555;SDS011;12725;49.440;10.954;2023-08-01T17:45:45;0.70;;;0.70;;
24555;SDS011;12725;49.440;10.954;2023-08-01T17:49:45;1.00;;;0.70;;
24555;SDS011;12725;49.440;10.954;2023-08-01T17:53:46;0.65;;;0.60;;
24555;SDS011;12725;49.440;10.954;2023-08-01T17:57:47;0.88;;;0.85;;
24555;SDS011;12725;49.440;10.954;2023-08-01T18:01:47;1.30;;;0.90;;
24555;SDS011;12725;49.440;10.954;2023-08-01T18:05:48;1.67;;;0.57;;
24555;SDS011;12725;49.440;10.954;2023-08-01T18:09:48;3.60;;;0.90;;
24555;SDS011;12725;49.440;10.954;2023-08-01T18:13:49;0.63;;;0.60;;
24555;SDS011;12725;49.440;10.954;2023-08-01T18:17:49;2.00;;;0.60;;
24555;SDS011;12725;49.440;10.954;2023-08-01T18:21:51;0.83;;;0.80;;
24555;SDS011;12725;49.440;10.954;2023-08-01T18:25:52;0.60;;;0.60;;
24555;SDS011;12725;49.440;10.954;2023-08-01T18:29:52;2.05;;;1.38;;
24555;SDS011;12725;49.440;10.954;2023-08-01T18:33:53;0.77;;;0.77;;
24555;SDS011;12725;49.440;10.954;2023-08-01T18:37:53;0.50;;;0.50;;
24555;SDS011;12725;49.440;10.954;2023-08-01T18:41:53;0.90;;;0.67;;
24555;SDS011;12725;49.440;10.954;2023-08-01T18:45:54;1.38;;;0.90;;
24555;SDS011;12725;49.440;10.954;2023-08-01T18:49:55;2.45;;;0.80;;
24555;SDS011;12725;49.440;10.954;2023-08-01T18:53:55;1.30;;;0.83;;
24555;SDS011;12725;49.440;10.954;2023-08-01T18:57:56;1.50;;;0.90;;
24555;SDS011;12725;49.440;10.954;2023-08-01T19:01:59;1.77;;;1.10;;
24555;SDS011;12725;49.440;10.954;2023-08-01T19:06:00;0.52;;;0.52;;
24555;SDS011;12725;49.440;10.954;2023-08-01T19:10:01;4.63;;;1.13;;
24555;SDS011;12725;49.440;10.954;2023-08-01T19:14:03;1.80;;;1.00;;
24555;SDS011;12725;49.440;10.954;2023-08-01T19:18:04;1.35;;;0.88;;
24555;SDS011;12725;49.440;10.954;2023-08-01T19:22:04;1.80;;;0.73;;
24555;SDS011;12725;49.440;10.954;2023-08-01T19:26:05;2.08;;;0.88;;
24555;SDS011;12725;49.440;10.954;2023-08-01T19:30:07;0.40;;;0.40;;
24555;SDS011;12725;49.440;10.954;2023-08-01T19:34:07;3.75;;;1.45;;
24555;SDS011;12725;49.440;10.954;2023-08-01T19:38:08;1.23;;;0.85;;
24555;SDS011;12725;49.440;10.954;2023-08-01T19:42:09;2.08;;;1.13;;
24555;SDS011;12725;49.440;10.954;2023-08-01T19:46:13;1.67;;;0.80;;
24555;SDS011;12725;49.440;10.954;2023-08-01T19:50:17;3.42;;;0.80;;
24555;SDS011;12725;49.440;10.954;2023-08-01T19:54:17;1.30;;;0.88;;
24555;SDS011;12725;49.440;10.954;2023-08-01T19:58:18;0.63;;;0.63;;
24555;SDS011;12725;49.440;10.954;2023-08-01T20:02:18;2.13;;;0.70;;
24555;SDS011;12725;49.440;10.954;2023-08-01T20:06:18;1.10;;;1.00;;
24555;SDS011;12725;49.440;10.954;2023-08-01T20:10:19;4.70;;;1.10;;
24555;SDS011;12725;49.440;10.954;2023-08-01T20:14:20;0.70;;;0.70;;
24555;SDS011;12725;49.440;10.954;2023-08-01T20:18:20;1.23;;;1.00;;
24555;SDS011;12725;49.440;10.954;2023-08-01T20:22:20;0.70;;;0.70;;
24555;SDS011;12725;49.440;10.954;2023-08-01T20:26:21;2.13;;;0.80;;
24555;SDS011;12725;49.440;10.954;2023-08-01T20:30:22;2.17;;;1.00;;
24555;SDS011;12725;49.440;10.954;2023-08-01T20:34:22;1.10;;;0.77;;
24555;SDS011;12725;49.440;10.954;2023-08-01T20:38:22;3.17;;;1.00;;
24555;SDS011;12725;49.440;10.954;2023-08-01T20:42:23;1.08;;;0.63;;
24555;SDS011;12725;49.440;10.954;2023-08-01T20:46:23;2.23;;;2.00;;
24555;SDS011;12725;49.440;10.954;2023-08-01T20:50:24;0.93;;;0.70;;
24555;SDS011;12725;49.440;10.954;2023-08-01T20:54:24;0.65;;;0.65;;
24555;SDS011;12725;49.440;10.954;2023-08-01T20:58:24;0.70;;;0.70;;
24555;SDS011;12725;49.440;10.954;2023-08-01T21:02:25;0.53;;;0.53;;
24555;SDS011;12725;49.440;10.954;2023-08-01T21:06:25;1.13;;;0.80;;
24555;SDS011;12725;49.440;10.954;2023-08-01T21:10:27;1.73;;;0.87;;
24555;SDS011;12725;49.440;10.954;2023-08-01T21:14:28;1.08;;;0.65;;
24555;SDS011;12725;49.440;10.954;2023-08-01T21:18:29;0.63;;;0.60;;
24555;SDS011;12725;49.440;10.954;2023-08-01T21:22:30;1.83;;;1.10;;
24555;SDS011;12725;49.440;10.954;2023-08-01T21:26:30;1.53;;;1.07;;
24555;SDS011;12725;49.440;10.954;2023-08-01T21:30:31;1.83;;;1.00;;
24555;SDS011;12725;49.440;10.954;2023-08-01T21:34:31;2.08;;;0.90;;
24555;SDS011;12725;49.440;10.954;2023-08-01T21:38:31;0.93;;;0.60;;
24555;SDS011;12725;49.440;10.954;2023-08-01T21:42:35;2.20;;;0.90;;
24555;SDS011;12725;49.440;10.954;2023-08-01T21:46:35;1.00;;;0.90;;
24555;SDS011;12725;49.440;10.954;2023-08-01T21:50:36;1.73;;;1.00;;
24555;SDS011;12725;49.440;10.954;2023-08-01T21:54:36;1.93;;;0.97;;
24555;SDS011;12725;49.440;10.954;2023-08-01T21:58:36;0.70;;;0.70;;
24555;SDS011;12725;49.440;10.954;2023-08-01T22:02:37;1.27;;;1.00;;
24555;SDS011;12725;49.440;10.954;2023-08-01T22:06:38;3.05;;;1.08;;
24555;SDS011;12725;49.440;10.954;2023-08-01T22:10:38;1.17;;;1.00;;
24555;SDS011;12725;49.440;10.954;2023-08-01T22:14:38;0.90;;;0.90;;
24555;SDS011;12725;49.440;10.954;2023-08-01T22:18:39;1.43;;;1.20;;
24555;SDS011;12725;49.440;10.954;2023-08-01T22:22:39;0.80;;;0.80;;
24555;SDS011;12725;49.440;10.954;2023-08-01T22:26:40;1.50;;;1.15;;
24555;SDS011;12725;49.440;10.954;2023-08-01T22:30:40;1.03;;;0.90;;
24555;SDS011;12725;49.440;10.954;2023-08-01T22:34:40;1.40;;;1.07;;
24555;SDS011;12725;49.440;10.954;2023-08-01T22:38:41;1.57;;;1.07;;
24555;SDS011;12725;49.440;10.954;2023-08-01T22:42:41;1.63;;;1.17;;
24555;SDS011;12725;49.440;10.954;2023-08-01T22:46:41;2.53;;;1.20;;
24555;SDS011;12725;49.440;10.954;2023-08-01T22:50:42;2.53;;;1.05;;
24555;SDS011;12725;49.440;10.954;2023-08-01T22:54:42;1.35;;;0.90;;
24555;SDS011;12725;49.440;10.954;2023-08-01T22:58:43;2.83;;;0.90;;
24555;SDS011;12725;49.440;10.954;2023-08-01T23:02:44;2.63;;;1.10;;
24555;SDS011;12725;49.440;10.954;2023-08-01T23:06:44;1.38;;;0.90;;
24555;SDS011;12725;49.440;10.954;2023-08-01T23:10:44;0.88;;;0.88;;
24555;SDS011;12725;49.440;10.954;2023-08-01T23:14:45;1.47;;;1.03;;
24555;SDS011;12725;49.440;10.954;2023-08-01T23:18:45;1.37;;;1.10;;
24555;SDS011;12725;49.440;10.954;2023-08-01T23:22:45;1.23;;;0.90;;
24555;SDS011;12725;49.440;10.954;2023-08-01T23:26:46;0.90;;;0.73;;
24555;SDS011;12725;49.440;10.954;2023-08-01T23:30:46;6.77;;;0.93;;
24555;SDS011;12725;49.440;10.954;2023-08-01T23:34:46;1.17;;;0.90;;
24555;SDS011;12725;49.440;10.954;2023-08-01T23:38:47;7.13;;;1.33;;
24555;SDS011;12725;49.440;10.954;2023-08-01T23:42:49;2.80;;;1.38;;
24555;SDS011;12725;49.440;10.954;2023-08-01T23:46:49;1.70;;;0.85;;